Terminal Aerodrome Forecast
Issued by NWS

Current Version | Previous Version | Graphics & Text | Print | Product List | Glossary On
Versions: 1 2 3 4 5 6 7 8 9 10 11 12 13 14 15 16 17
000
FTUS41 KILN 250539
TAFLUK
TAF
KLUK 250539Z 2506/2606 26004KT P6SM SKC
     FM251500 27012G20KT P6SM SCT050
     FM260000 27005KT P6SM FEW050=

USA.gov is the U.S. government's official web portal to all federal, state and local government web resources and services.